sensor_id;sensor_type;location;lat;lon;timestamp;pressure;altitude;pressure_sealevel;temperature;humidity
50710;BME280;37033;49.994;21.992;2022-12-07T00:00:09;98800.20;;;1.06;94.20
50710;BME280;37033;49.994;21.992;2022-12-07T00:03:11;98797.98;;;1.05;94.29
50710;BME280;37033;49.994;21.992;2022-12-07T00:06:01;98798.91;;;1.04;94.21
50710;BME280;37033;49.994;21.992;2022-12-07T00:08:51;98794.58;;;1.03;94.28
50710;BME280;37033;49.994;21.992;2022-12-07T00:11:41;98795.61;;;1.02;94.25
50710;BME280;37033;49.994;21.992;2022-12-07T00:14:32;98799.05;;;1.00;94.08
50710;BME280;37033;49.994;21.992;2022-12-07T00:17:21;98804.84;;;0.99;94.24
50710;BME280;37033;49.994;21.992;2022-12-07T00:20:12;98804.79;;;0.98;94.13
50710;BME280;37033;49.994;21.992;2022-12-07T00:23:02;98810.52;;;0.97;94.29
50710;BME280;37033;49.994;21.992;2022-12-07T00:25:52;98812.69;;;0.96;94.26
50710;BME280;37033;49.994;21.992;2022-12-07T00:28:42;98816.02;;;0.96;94.17
50710;BME280;37033;49.994;21.992;2022-12-07T00:31:35;98813.70;;;0.95;94.25
50710;BME280;37033;49.994;21.992;2022-12-07T00:34:27;98818.95;;;0.96;94.30
50710;BME280;37033;49.994;21.992;2022-12-07T00:37:17;98818.49;;;0.97;94.29
50710;BME280;37033;49.994;21.992;2022-12-07T00:40:08;98817.88;;;0.98;94.33
50710;BME280;37033;49.994;21.992;2022-12-07T00:42:58;98819.17;;;0.99;94.48
50710;BME280;37033;49.994;21.992;2022-12-07T00:45:48;98818.23;;;0.99;94.35
50710;BME280;37033;49.994;21.992;2022-12-07T00:48:38;98814.27;;;1.00;94.46
50710;BME280;37033;49.994;21.992;2022-12-07T00:51:28;98819.55;;;1.01;94.38
50710;BME280;37033;49.994;21.992;2022-12-07T00:54:19;98820.52;;;1.02;94.48
50710;BME280;37033;49.994;21.992;2022-12-07T00:57:09;98823.48;;;1.02;94.44
50710;BME280;37033;49.994;21.992;2022-12-07T00:59:58;98820.35;;;1.03;94.44
50710;BME280;37033;49.994;21.992;2022-12-07T01:02:49;98817.98;;;1.03;94.40
50710;BME280;37033;49.994;21.992;2022-12-07T01:05:39;98816.80;;;1.04;94.51
50710;BME280;37033;49.994;21.992;2022-12-07T01:08:29;98811.45;;;1.05;94.43
50710;BME280;37033;49.994;21.992;2022-12-07T01:11:22;98809.39;;;1.06;94.40
50710;BME280;37033;49.994;21.992;2022-12-07T01:14:13;98809.02;;;1.07;94.40
50710;BME280;37033;49.994;21.992;2022-12-07T01:17:03;98803.44;;;1.08;94.48
50710;BME280;37033;49.994;21.992;2022-12-07T01:19:53;98797.51;;;1.08;94.40
50710;BME280;37033;49.994;21.992;2022-12-07T01:22:44;98800.23;;;1.09;94.40
50710;BME280;37033;49.994;21.992;2022-12-07T01:25:34;98795.99;;;1.10;94.39
50710;BME280;37033;49.994;21.992;2022-12-07T01:28:24;98792.41;;;1.10;94.41
50710;BME280;37033;49.994;21.992;2022-12-07T01:31:17;98792.86;;;1.11;94.40
50710;BME280;37033;49.994;21.992;2022-12-07T01:34:07;98794.81;;;1.11;94.50
50710;BME280;37033;49.994;21.992;2022-12-07T01:36:57;98790.45;;;1.12;94.46
50710;BME280;37033;49.994;21.992;2022-12-07T01:39:49;98791.77;;;1.13;94.51
50710;BME280;37033;49.994;21.992;2022-12-07T01:42:39;98793.44;;;1.14;94.52
50710;BME280;37033;49.994;21.992;2022-12-07T01:45:45;98793.34;;;1.16;94.49
50710;BME280;37033;49.994;21.992;2022-12-07T01:48:34;98793.31;;;1.16;94.56
50710;BME280;37033;49.994;21.992;2022-12-07T01:51:27;98797.64;;;1.15;94.54
50710;BME280;37033;49.994;21.992;2022-12-07T01:54:18;98795.44;;;1.17;94.49
50710;BME280;37033;49.994;21.992;2022-12-07T01:57:10;98798.71;;;1.18;94.57
50710;BME280;37033;49.994;21.992;2022-12-07T02:00:03;98795.80;;;1.19;94.50
50710;BME280;37033;49.994;21.992;2022-12-07T02:02:57;98794.86;;;1.19;94.48
50710;BME280;37033;49.994;21.992;2022-12-07T02:05:50;98790.50;;;1.20;94.55
50710;BME280;37033;49.994;21.992;2022-12-07T02:08:40;98790.20;;;1.21;94.53
50710;BME280;37033;49.994;21.992;2022-12-07T02:11:31;98788.52;;;1.20;94.52
50710;BME280;37033;49.994;21.992;2022-12-07T02:14:21;98793.10;;;1.21;94.56
50710;BME280;37033;49.994;21.992;2022-12-07T02:17:17;98798.04;;;1.21;94.56
50710;BME280;37033;49.994;21.992;2022-12-07T02:20:26;98795.85;;;1.21;94.53
50710;BME280;37033;49.994;21.992;2022-12-07T02:23:44;98791.70;;;1.22;94.51
50710;BME280;37033;49.994;21.992;2022-12-07T02:26:55;98793.06;;;1.22;94.51
50710;BME280;37033;49.994;21.992;2022-12-07T02:29:54;98792.90;;;1.22;94.56
50710;BME280;37033;49.994;21.992;2022-12-07T02:32:51;98796.89;;;1.22;94.49
50710;BME280;37033;49.994;21.992;2022-12-07T02:35:51;98796.98;;;1.22;94.53
50710;BME280;37033;49.994;21.992;2022-12-07T02:38:47;98792.41;;;1.22;94.51
50710;BME280;37033;49.994;21.992;2022-12-07T02:41:44;98792.08;;;1.23;94.57
50710;BME280;37033;49.994;21.992;2022-12-07T02:44:37;98791.59;;;1.22;94.50
50710;BME280;37033;49.994;21.992;2022-12-07T02:47:29;98792.33;;;1.22;94.52
50710;BME280;37033;49.994;21.992;2022-12-07T02:50:20;98793.39;;;1.22;94.52
50710;BME280;37033;49.994;21.992;2022-12-07T02:53:30;98793.06;;;1.22;94.49
50710;BME280;37033;49.994;21.992;2022-12-07T02:56:26;98792.45;;;1.23;94.53
50710;BME280;37033;49.994;21.992;2022-12-07T02:59:28;98794.34;;;1.22;94.47
50710;BME280;37033;49.994;21.992;2022-12-07T03:02:26;98797.92;;;1.22;94.40
50710;BME280;37033;49.994;21.992;2022-12-07T03:05:39;98795.28;;;1.21;94.39
50710;BME280;37033;49.994;21.992;2022-12-07T03:08:39;98794.05;;;1.22;94.39
50710;BME280;37033;49.994;21.992;2022-12-07T03:11:38;98789.55;;;1.20;94.45
50710;BME280;37033;49.994;21.992;2022-12-07T03:14:34;98790.58;;;1.19;94.44
50710;BME280;37033;49.994;21.992;2022-12-07T03:17:28;98788.84;;;1.19;94.39
50710;BME280;37033;49.994;21.992;2022-12-07T03:20:23;98790.23;;;1.19;94.45
50710;BME280;37033;49.994;21.992;2022-12-07T03:23:16;98783.82;;;1.19;94.48
50710;BME280;37033;49.994;21.992;2022-12-07T03:26:11;98783.65;;;1.19;94.47
50710;BME280;37033;49.994;21.992;2022-12-07T03:29:04;98775.76;;;1.20;94.52
50710;BME280;37033;49.994;21.992;2022-12-07T03:32:00;98773.14;;;1.19;94.42
50710;BME280;37033;49.994;21.992;2022-12-07T03:34:56;98768.17;;;1.19;94.48
50710;BME280;37033;49.994;21.992;2022-12-07T03:37:51;98763.84;;;1.19;94.48
50710;BME280;37033;49.994;21.992;2022-12-07T03:40:47;98760.14;;;1.20;94.42
50710;BME280;37033;49.994;21.992;2022-12-07T03:43:40;98757.34;;;1.20;94.48
50710;BME280;37033;49.994;21.992;2022-12-07T03:46:37;98758.78;;;1.20;94.46
50710;BME280;37033;49.994;21.992;2022-12-07T03:49:39;98757.27;;;1.20;94.51
50710;BME280;37033;49.994;21.992;2022-12-07T03:52:36;98758.13;;;1.21;94.49
50710;BME280;37033;49.994;21.992;2022-12-07T03:55:31;98758.26;;;1.22;94.52
50710;BME280;37033;49.994;21.992;2022-12-07T03:58:23;98758.92;;;1.23;94.48
50710;BME280;37033;49.994;21.992;2022-12-07T04:01:13;98756.98;;;1.22;94.53
50710;BME280;37033;49.994;21.992;2022-12-07T04:04:03;98754.39;;;1.22;94.53
50710;BME280;37033;49.994;21.992;2022-12-07T04:06:53;98752.59;;;1.22;94.49
50710;BME280;37033;49.994;21.992;2022-12-07T04:09:44;98753.69;;;1.22;94.52
50710;BME280;37033;49.994;21.992;2022-12-07T04:12:34;98751.41;;;1.21;94.49
50710;BME280;37033;49.994;21.992;2022-12-07T04:15:24;98752.52;;;1.21;94.52
50710;BME280;37033;49.994;21.992;2022-12-07T04:18:14;98747.54;;;1.21;94.57
50710;BME280;37033;49.994;21.992;2022-12-07T04:21:05;98745.19;;;1.21;94.61
50710;BME280;37033;49.994;21.992;2022-12-07T04:23:55;98743.22;;;1.21;94.60
50710;BME280;37033;49.994;21.992;2022-12-07T04:26:45;98735.60;;;1.22;94.58
50710;BME280;37033;49.994;21.992;2022-12-07T04:29:37;98732.20;;;1.22;94.65
50710;BME280;37033;49.994;21.992;2022-12-07T04:32:27;98733.39;;;1.24;94.57
50710;BME280;37033;49.994;21.992;2022-12-07T04:35:17;98728.79;;;1.24;94.63
50710;BME280;37033;49.994;21.992;2022-12-07T04:38:07;98727.56;;;1.25;94.53
50710;BME280;37033;49.994;21.992;2022-12-07T04:40:57;98725.38;;;1.24;94.60
50710;BME280;37033;49.994;21.992;2022-12-07T04:43:47;98728.70;;;1.24;94.59
50710;BME280;37033;49.994;21.992;2022-12-07T04:46:37;98725.54;;;1.24;94.50
50710;BME280;37033;49.994;21.992;2022-12-07T04:49:27;98729.70;;;1.25;94.58
50710;BME280;37033;49.994;21.992;2022-12-07T04:52:17;98728.09;;;1.26;94.61
50710;BME280;37033;49.994;21.992;2022-12-07T04:55:08;98728.42;;;1.27;94.59
50710;BME280;37033;49.994;21.992;2022-12-07T04:57:57;98719.73;;;1.27;94.54
50710;BME280;37033;49.994;21.992;2022-12-07T05:00:47;98723.57;;;1.28;94.46
50710;BME280;37033;49.994;21.992;2022-12-07T05:03:38;98720.53;;;1.30;94.49
50710;BME280;37033;49.994;21.992;2022-12-07T05:06:28;98719.59;;;1.31;94.54
50710;BME280;37033;49.994;21.992;2022-12-07T05:09:19;98721.35;;;1.33;94.55
50710;BME280;37033;49.994;21.992;2022-12-07T05:12:09;98718.79;;;1.33;94.47
50710;BME280;37033;49.994;21.992;2022-12-07T05:14:59;98719.56;;;1.34;94.46
50710;BME280;37033;49.994;21.992;2022-12-07T05:17:49;98714.75;;;1.35;94.48
50710;BME280;37033;49.994;21.992;2022-12-07T05:20:41;98717.07;;;1.37;94.41
50710;BME280;37033;49.994;21.992;2022-12-07T05:23:31;98714.35;;;1.37;94.48
50710;BME280;37033;49.994;21.992;2022-12-07T05:26:21;98715.09;;;1.37;94.44
50710;BME280;37033;49.994;21.992;2022-12-07T05:29:14;98718.52;;;1.38;94.37
50710;BME280;37033;49.994;21.992;2022-12-07T05:32:04;98717.16;;;1.39;94.39
50710;BME280;37033;49.994;21.992;2022-12-07T05:34:54;98717.66;;;1.40;94.37
50710;BME280;37033;49.994;21.992;2022-12-07T05:37:44;98715.88;;;1.39;94.34
50710;BME280;37033;49.994;21.992;2022-12-07T05:40:34;98718.11;;;1.40;94.38
50710;BME280;37033;49.994;21.992;2022-12-07T05:43:24;98717.95;;;1.40;94.34
50710;BME280;37033;49.994;21.992;2022-12-07T05:46:14;98719.10;;;1.39;94.27
50710;BME280;37033;49.994;21.992;2022-12-07T05:49:04;98723.42;;;1.39;94.30
50710;BME280;37033;49.994;21.992;2022-12-07T05:51:54;98728.65;;;1.38;94.26
50710;BME280;37033;49.994;21.992;2022-12-07T05:54:44;98728.73;;;1.38;94.25
50710;BME280;37033;49.994;21.992;2022-12-07T05:57:34;98726.55;;;1.38;94.29
50710;BME280;37033;49.994;21.992;2022-12-07T06:00:24;98721.27;;;1.37;94.26
50710;BME280;37033;49.994;21.992;2022-12-07T06:03:14;98720.36;;;1.37;94.33
50710;BME280;37033;49.994;21.992;2022-12-07T06:06:04;98723.92;;;1.38;94.32
50710;BME280;37033;49.994;21.992;2022-12-07T06:08:54;98722.92;;;1.37;94.24
50710;BME280;37033;49.994;21.992;2022-12-07T06:11:45;98722.80;;;1.37;94.27
50710;BME280;37033;49.994;21.992;2022-12-07T06:14:53;98722.50;;;1.36;94.23
50710;BME280;37033;49.994;21.992;2022-12-07T06:17:43;98719.66;;;1.36;94.31
50710;BME280;37033;49.994;21.992;2022-12-07T06:23:22;98720.28;;;1.36;94.34
50710;BME280;37033;49.994;21.992;2022-12-07T06:26:12;98719.70;;;1.36;94.37
50710;BME280;37033;49.994;21.992;2022-12-07T06:29:02;98720.16;;;1.35;94.52
50710;BME280;37033;49.994;21.992;2022-12-07T06:31:53;98718.39;;;1.35;94.58
50710;BME280;37033;49.994;21.992;2022-12-07T06:34:42;98717.64;;;1.35;94.59
50710;BME280;37033;49.994;21.992;2022-12-07T06:37:33;98718.83;;;1.34;94.54
50710;BME280;37033;49.994;21.992;2022-12-07T06:40:23;98717.67;;;1.35;94.58
50710;BME280;37033;49.994;21.992;2022-12-07T06:43:14;98719.41;;;1.35;94.68
50710;BME280;37033;49.994;21.992;2022-12-07T06:46:04;98717.77;;;1.36;94.74
50710;BME280;37033;49.994;21.992;2022-12-07T06:48:53;98718.09;;;1.36;94.73
50710;BME280;37033;49.994;21.992;2022-12-07T06:51:44;98718.17;;;1.36;94.83
50710;BME280;37033;49.994;21.992;2022-12-07T06:54:34;98718.55;;;1.38;94.83
50710;BME280;37033;49.994;21.992;2022-12-07T06:57:24;98718.30;;;1.38;94.79
50710;BME280;37033;49.994;21.992;2022-12-07T07:00:15;98721.48;;;1.39;94.86
50710;BME280;37033;49.994;21.992;2022-12-07T07:03:05;98722.48;;;1.40;94.88
50710;BME280;37033;49.994;21.992;2022-12-07T07:05:55;98724.99;;;1.41;94.83
50710;BME280;37033;49.994;21.992;2022-12-07T07:08:45;98727.77;;;1.42;94.84
50710;BME280;37033;49.994;21.992;2022-12-07T07:11:35;98726.92;;;1.41;94.86
50710;BME280;37033;49.994;21.992;2022-12-07T07:14:26;98724.25;;;1.41;94.85
50710;BME280;37033;49.994;21.992;2022-12-07T07:17:16;98725.98;;;1.42;94.82
50710;BME280;37033;49.994;21.992;2022-12-07T07:20:08;98729.99;;;1.42;94.89
50710;BME280;37033;49.994;21.992;2022-12-07T07:22:58;98733.62;;;1.43;94.89
50710;BME280;37033;49.994;21.992;2022-12-07T07:25:49;98738.00;;;1.44;94.96
50710;BME280;37033;49.994;21.992;2022-12-07T07:28:39;98738.61;;;1.44;94.96
50710;BME280;37033;49.994;21.992;2022-12-07T07:31:29;98740.71;;;1.45;94.89
50710;BME280;37033;49.994;21.992;2022-12-07T07:34:20;98737.17;;;1.46;94.92
50710;BME280;37033;49.994;21.992;2022-12-07T07:37:11;98733.88;;;1.47;94.86
50710;BME280;37033;49.994;21.992;2022-12-07T07:40:01;98727.38;;;1.47;94.90
50710;BME280;37033;49.994;21.992;2022-12-07T07:42:52;98730.23;;;1.47;94.96
50710;BME280;37033;49.994;21.992;2022-12-07T07:45:43;98730.92;;;1.47;94.97
50710;BME280;37033;49.994;21.992;2022-12-07T07:48:33;98735.02;;;1.49;94.91
50710;BME280;37033;49.994;21.992;2022-12-07T07:51:23;98733.23;;;1.50;94.94
50710;BME280;37033;49.994;21.992;2022-12-07T07:54:13;98734.93;;;1.51;94.90
50710;BME280;37033;49.994;21.992;2022-12-07T07:57:03;98739.27;;;1.52;95.05
50710;BME280;37033;49.994;21.992;2022-12-07T07:59:53;98741.63;;;1.53;94.97
50710;BME280;37033;49.994;21.992;2022-12-07T08:02:43;98740.81;;;1.55;94.98
50710;BME280;37033;49.994;21.992;2022-12-07T08:05:35;98742.50;;;1.56;94.94
50710;BME280;37033;49.994;21.992;2022-12-07T08:08:26;98745.02;;;1.57;94.93
50710;BME280;37033;49.994;21.992;2022-12-07T08:11:16;98747.24;;;1.58;95.04
50710;BME280;37033;49.994;21.992;2022-12-07T08:14:06;98746.60;;;1.58;95.03
50710;BME280;37033;49.994;21.992;2022-12-07T08:16:56;98752.15;;;1.59;95.00
50710;BME280;37033;49.994;21.992;2022-12-07T08:19:46;98751.66;;;1.58;94.98
50710;BME280;37033;49.994;21.992;2022-12-07T08:22:35;98752.19;;;1.57;95.06
50710;BME280;37033;49.994;21.992;2022-12-07T08:25:26;98755.36;;;1.57;95.00
50710;BME280;37033;49.994;21.992;2022-12-07T08:28:16;98760.95;;;1.57;95.08
50710;BME280;37033;49.994;21.992;2022-12-07T08:31:11;98764.59;;;1.56;95.01
50710;BME280;37033;49.994;21.992;2022-12-07T08:34:01;98761.73;;;1.55;95.10
50710;BME280;37033;49.994;21.992;2022-12-07T08:36:52;98764.17;;;1.55;95.07
50710;BME280;37033;49.994;21.992;2022-12-07T08:39:42;98765.83;;;1.55;95.17
50710;BME280;37033;49.994;21.992;2022-12-07T08:42:32;98764.09;;;1.55;95.05
50710;BME280;37033;49.994;21.992;2022-12-07T08:45:26;98767.13;;;1.55;95.09
50710;BME280;37033;49.994;21.992;2022-12-07T08:48:21;98768.45;;;1.54;95.16
50710;BME280;37033;49.994;21.992;2022-12-07T08:51:12;98767.67;;;1.55;95.21
50710;BME280;37033;49.994;21.992;2022-12-07T08:54:06;98770.36;;;1.54;95.19
50710;BME280;37033;49.994;21.992;2022-12-07T08:56:57;98773.40;;;1.53;95.22
50710;BME280;37033;49.994;21.992;2022-12-07T08:59:47;98771.50;;;1.53;95.16
50710;BME280;37033;49.994;21.992;2022-12-07T09:02:37;98772.94;;;1.53;95.17
50710;BME280;37033;49.994;21.992;2022-12-07T09:05:27;98771.73;;;1.52;95.22
50710;BME280;37033;49.994;21.992;2022-12-07T09:08:17;98772.31;;;1.52;95.29
50710;BME280;37033;49.994;21.992;2022-12-07T09:11:07;98768.11;;;1.51;95.26
50710;BME280;37033;49.994;21.992;2022-12-07T09:13:57;98767.48;;;1.52;95.30
50710;BME280;37033;49.994;21.992;2022-12-07T09:16:47;98764.38;;;1.53;95.31
50710;BME280;37033;49.994;21.992;2022-12-07T09:19:39;98766.45;;;1.54;95.28
50710;BME280;37033;49.994;21.992;2022-12-07T09:22:35;98768.38;;;1.55;95.35
50710;BME280;37033;49.994;21.992;2022-12-07T09:25:29;98769.20;;;1.55;95.32
50710;BME280;37033;49.994;21.992;2022-12-07T09:28:20;98767.27;;;1.54;95.29
50710;BME280;37033;49.994;21.992;2022-12-07T09:31:11;98763.83;;;1.52;95.27
50710;BME280;37033;49.994;21.992;2022-12-07T09:34:02;98758.58;;;1.50;95.30
50710;BME280;37033;49.994;21.992;2022-12-07T09:36:54;98757.05;;;1.48;95.20
50710;BME280;37033;49.994;21.992;2022-12-07T09:39:44;98757.34;;;1.47;95.25
50710;BME280;37033;49.994;21.992;2022-12-07T09:42:36;98756.27;;;1.47;95.23
50710;BME280;37033;49.994;21.992;2022-12-07T09:45:32;98750.66;;;1.48;95.28
50710;BME280;37033;49.994;21.992;2022-12-07T09:48:27;98752.75;;;1.47;95.30
50710;BME280;37033;49.994;21.992;2022-12-07T09:51:21;98749.26;;;1.48;95.40
50710;BME280;37033;49.994;21.992;2022-12-07T09:54:13;98747.20;;;1.48;95.38
50710;BME280;37033;49.994;21.992;2022-12-07T09:57:04;98749.39;;;1.50;95.32
50710;BME280;37033;49.994;21.992;2022-12-07T09:59:54;98744.19;;;1.48;95.40
50710;BME280;37033;49.994;21.992;2022-12-07T10:02:46;98742.14;;;1.50;95.38
50710;BME280;37033;49.994;21.992;2022-12-07T10:05:40;98741.86;;;1.51;95.37
50710;BME280;37033;49.994;21.992;2022-12-07T10:08:33;98742.91;;;1.50;95.28
50710;BME280;37033;49.994;21.992;2022-12-07T10:11:22;98739.25;;;1.49;95.31
50710;BME280;37033;49.994;21.992;2022-12-07T10:14:15;98742.21;;;1.48;95.31
50710;BME280;37033;49.994;21.992;2022-12-07T10:17:31;98740.98;;;1.47;95.22
50710;BME280;37033;49.994;21.992;2022-12-07T10:20:24;98740.94;;;1.47;95.32
50710;BME280;37033;49.994;21.992;2022-12-07T10:23:17;98740.95;;;1.49;95.27
50710;BME280;37033;49.994;21.992;2022-12-07T10:26:29;98741.61;;;1.49;95.28
50710;BME280;37033;49.994;21.992;2022-12-07T10:29:22;98743.09;;;1.50;95.19
50710;BME280;37033;49.994;21.992;2022-12-07T10:32:49;98745.98;;;1.51;95.26
50710;BME280;37033;49.994;21.992;2022-12-07T10:35:44;98746.55;;;1.53;95.28
50710;BME280;37033;49.994;21.992;2022-12-07T10:38:34;98743.06;;;1.55;95.29
50710;BME280;37033;49.994;21.992;2022-12-07T10:41:33;98741.58;;;1.56;95.18
50710;BME280;37033;49.994;21.992;2022-12-07T10:44:25;98742.63;;;1.58;95.25
50710;BME280;37033;49.994;21.992;2022-12-07T10:47:24;98738.43;;;1.58;95.24
50710;BME280;37033;49.994;21.992;2022-12-07T10:50:30;98737.85;;;1.57;95.15
50710;BME280;37033;49.994;21.992;2022-12-07T10:53:38;98738.18;;;1.59;95.25
50710;BME280;37033;49.994;21.992;2022-12-07T11:00:08;98739.77;;;1.63;95.27
50710;BME280;37033;49.994;21.992;2022-12-07T11:03:21;98737.79;;;1.63;95.23
50710;BME280;37033;49.994;21.992;2022-12-07T11:06:26;98740.35;;;1.64;95.26
50710;BME280;37033;49.994;21.992;2022-12-07T11:09:40;98737.80;;;1.66;95.28
50710;BME280;37033;49.994;21.992;2022-12-07T11:12:47;98739.65;;;1.72;95.22
50710;BME280;37033;49.994;21.992;2022-12-07T11:15:52;98737.80;;;1.75;95.35
50710;BME280;37033;49.994;21.992;2022-12-07T11:18:54;98733.64;;;1.78;95.23
50710;BME280;37033;49.994;21.992;2022-12-07T11:21:52;98733.04;;;1.83;95.22
50710;BME280;37033;49.994;21.992;2022-12-07T11:24:53;98730.83;;;1.85;95.22
50710;BME280;37033;49.994;21.992;2022-12-07T11:27:52;98730.25;;;1.85;95.18
50710;BME280;37033;49.994;21.992;2022-12-07T11:30:55;98732.60;;;1.85;95.13
50710;BME280;37033;49.994;21.992;2022-12-07T11:33:49;98731.21;;;1.88;95.09
50710;BME280;37033;49.994;21.992;2022-12-07T11:36:45;98732.23;;;1.91;95.11
50710;BME280;37033;49.994;21.992;2022-12-07T11:39:41;98734.11;;;1.95;95.24
50710;BME280;37033;49.994;21.992;2022-12-07T11:42:38;98735.29;;;2.00;95.27
50710;BME280;37033;49.994;21.992;2022-12-07T11:45:34;98733.14;;;2.02;95.16
50710;BME280;37033;49.994;21.992;2022-12-07T11:48:32;98735.13;;;2.03;95.11
50710;BME280;37033;49.994;21.992;2022-12-07T11:51:24;98733.10;;;2.06;95.01
50710;BME280;37033;49.994;21.992;2022-12-07T11:54:18;98730.48;;;2.08;95.08
50710;BME280;37033;49.994;21.992;2022-12-07T11:57:17;98735.64;;;2.11;95.15
50710;BME280;37033;49.994;21.992;2022-12-07T12:00:15;98732.75;;;2.11;95.10
50710;BME280;37033;49.994;21.992;2022-12-07T12:03:11;98733.23;;;2.13;95.00
50710;BME280;37033;49.994;21.992;2022-12-07T12:06:02;98735.81;;;2.14;95.02
50710;BME280;37033;49.994;21.992;2022-12-07T12:08:58;98733.67;;;2.15;95.07
50710;BME280;37033;49.994;21.992;2022-12-07T12:12:18;98728.30;;;2.16;94.95
50710;BME280;37033;49.994;21.992;2022-12-07T12:15:26;98726.73;;;2.19;95.07
50710;BME280;37033;49.994;21.992;2022-12-07T12:18:31;98723.94;;;2.20;94.98
50710;BME280;37033;49.994;21.992;2022-12-07T12:21:28;98726.21;;;2.22;95.01
50710;BME280;37033;49.994;21.992;2022-12-07T12:24:22;98725.68;;;2.23;94.93
50710;BME280;37033;49.994;21.992;2022-12-07T12:27:17;98727.08;;;2.23;94.90
50710;BME280;37033;49.994;21.992;2022-12-07T12:33:31;98727.65;;;2.22;94.91
50710;BME280;37033;49.994;21.992;2022-12-07T12:36:25;98725.23;;;2.22;94.87
50710;BME280;37033;49.994;21.992;2022-12-07T12:39:16;98726.63;;;2.21;94.85
50710;BME280;37033;49.994;21.992;2022-12-07T12:42:19;98727.56;;;2.21;94.81
50710;BME280;37033;49.994;21.992;2022-12-07T12:45:23;98726.49;;;2.21;94.85
50710;BME280;37033;49.994;21.992;2022-12-07T12:48:29;98728.73;;;2.20;94.75
50710;BME280;37033;49.994;21.992;2022-12-07T12:51:41;98728.43;;;2.20;94.77
50710;BME280;37033;49.994;21.992;2022-12-07T12:54:33;98733.30;;;2.18;94.66
50710;BME280;37033;49.994;21.992;2022-12-07T12:57:28;98731.81;;;2.18;94.73
50710;BME280;37033;49.994;21.992;2022-12-07T13:00:21;98733.09;;;2.18;94.58
50710;BME280;37033;49.994;21.992;2022-12-07T13:03:24;98732.15;;;2.17;94.36
50710;BME280;37033;49.994;21.992;2022-12-07T13:06:35;98731.85;;;2.17;94.35
50710;BME280;37033;49.994;21.992;2022-12-07T13:09:30;98731.85;;;2.16;94.29
50710;BME280;37033;49.994;21.992;2022-12-07T13:12:22;98735.23;;;2.17;94.16
50710;BME280;37033;49.994;21.992;2022-12-07T13:15:33;98736.02;;;2.15;94.01
50710;BME280;37033;49.994;21.992;2022-12-07T13:18:36;98733.77;;;2.13;93.93
50710;BME280;37033;49.994;21.992;2022-12-07T13:21:44;98737.17;;;2.13;93.88
50710;BME280;37033;49.994;21.992;2022-12-07T13:24:33;98738.94;;;2.13;93.79
50710;BME280;37033;49.994;21.992;2022-12-07T13:27:24;98741.58;;;2.12;93.74
50710;BME280;37033;49.994;21.992;2022-12-07T13:30:19;98743.14;;;2.10;93.52
50710;BME280;37033;49.994;21.992;2022-12-07T13:33:09;98743.88;;;2.09;93.55
50710;BME280;37033;49.994;21.992;2022-12-07T13:35:59;98746.39;;;2.08;93.47
50710;BME280;37033;49.994;21.992;2022-12-07T13:38:55;98747.80;;;2.07;93.41
50710;BME280;37033;49.994;21.992;2022-12-07T13:41:48;98745.91;;;2.06;93.36
50710;BME280;37033;49.994;21.992;2022-12-07T13:44:41;98745.03;;;2.06;93.43
50710;BME280;37033;49.994;21.992;2022-12-07T13:47:34;98741.60;;;2.07;93.43
50710;BME280;37033;49.994;21.992;2022-12-07T13:50:30;98744.61;;;2.07;93.42
50710;BME280;37033;49.994;21.992;2022-12-07T13:53:20;98744.08;;;2.07;93.43
50710;BME280;37033;49.994;21.992;2022-12-07T13:56:14;98743.64;;;2.07;93.42
50710;BME280;37033;49.994;21.992;2022-12-07T13:59:07;98744.13;;;2.06;93.33
50710;BME280;37033;49.994;21.992;2022-12-07T14:02:00;98748.26;;;2.06;93.37
50710;BME280;37033;49.994;21.992;2022-12-07T14:04:51;98748.66;;;2.06;93.42
50710;BME280;37033;49.994;21.992;2022-12-07T14:07:55;98745.85;;;2.06;93.38
50710;BME280;37033;49.994;21.992;2022-12-07T14:10:56;98749.15;;;2.05;93.40
50710;BME280;37033;49.994;21.992;2022-12-07T14:13:56;98751.84;;;2.05;93.33
50710;BME280;37033;49.994;21.992;2022-12-07T14:17:00;98758.44;;;2.05;93.30
50710;BME280;37033;49.994;21.992;2022-12-07T14:19:52;98758.39;;;2.06;93.37
50710;BME280;37033;49.994;21.992;2022-12-07T14:22:43;98757.23;;;2.05;93.28
50710;BME280;37033;49.994;21.992;2022-12-07T14:25:51;98754.06;;;2.04;93.30
50710;BME280;37033;49.994;21.992;2022-12-07T14:28:43;98753.85;;;2.03;93.28
50710;BME280;37033;49.994;21.992;2022-12-07T14:31:33;98750.91;;;2.02;93.27
50710;BME280;37033;49.994;21.992;2022-12-07T14:34:23;98747.90;;;2.01;93.30
50710;BME280;37033;49.994;21.992;2022-12-07T14:37:14;98745.66;;;1.99;93.29
50710;BME280;37033;49.994;21.992;2022-12-07T14:40:06;98743.56;;;1.97;93.35
50710;BME280;37033;49.994;21.992;2022-12-07T14:42:59;98744.88;;;1.97;93.36
50710;BME280;37033;49.994;21.992;2022-12-07T14:45:50;98747.35;;;1.95;93.34
50710;BME280;37033;49.994;21.992;2022-12-07T14:48:40;98750.98;;;1.94;93.26
50710;BME280;37033;49.994;21.992;2022-12-07T14:51:30;98747.59;;;1.92;93.33
50710;BME280;37033;49.994;21.992;2022-12-07T14:54:21;98753.69;;;1.91;93.31
50710;BME280;37033;49.994;21.992;2022-12-07T14:57:14;98755.48;;;1.89;93.32
50710;BME280;37033;49.994;21.992;2022-12-07T15:00:09;98750.54;;;1.88;93.40
50710;BME280;37033;49.994;21.992;2022-12-07T15:03:02;98749.63;;;1.86;93.44
50710;BME280;37033;49.994;21.992;2022-12-07T15:05:52;98747.67;;;1.85;93.35
50710;BME280;37033;49.994;21.992;2022-12-07T15:08:43;98748.56;;;1.84;93.36
50710;BME280;37033;49.994;21.992;2022-12-07T15:11:33;98749.08;;;1.83;93.34
50710;BME280;37033;49.994;21.992;2022-12-07T15:14:23;98751.54;;;1.81;93.35
50710;BME280;37033;49.994;21.992;2022-12-07T15:17:13;98751.21;;;1.80;93.28
50710;BME280;37033;49.994;21.992;2022-12-07T15:20:05;98754.80;;;1.78;93.34
50710;BME280;37033;49.994;21.992;2022-12-07T15:22:54;98754.77;;;1.75;93.33
50710;BME280;37033;49.994;21.992;2022-12-07T15:25:45;98755.27;;;1.74;93.34
50710;BME280;37033;49.994;21.992;2022-12-07T15:28:36;98754.41;;;1.73;93.42